Time;durP1;ratioP1;P1;durP2;ratioP2;P2;SDS_P1;SDS_P2;PMS_P1;PMS_P2;Temp;Humidity;BMP_temperature;BMP_pressure;BME280_temperature;BME280_humidity;BME280_pressure;Samples;Min_cycle;Max_cycle;Signal;HPM_P1;HPM_P2
2022/11/14 00:01:45;;;;;;;33.65;22.33;;;6.90;99.90;;;;;;5055482;28;20274;-64
2022/11/14 00:04:34;;;;;;;38.35;22.38;;;6.90;99.90;;;;;;5053282;28;20617;-64
2022/11/14 00:07:30;;;;;;;34.85;19.83;;;6.90;99.90;;;;;;5058942;28;20276;-65
2022/11/14 00:10:24;;;;;;;36.15;20.92;;;6.90;99.90;;;;;;5055770;28;20206;-64
2022/11/14 00:13:18;;;;;;;44.72;22.00;;;6.90;99.90;;;;;;5060358;28;20203;-65
2022/11/14 00:16:10;;;;;;;30.75;18.60;;;6.80;99.90;;;;;;5057716;28;20197;-64
2022/11/14 00:19:15;;;;;;;29.65;20.33;;;6.80;99.90;;;;;;5058438;28;20211;-64
2022/11/14 00:22:36;;;;;;;25.17;16.92;;;6.80;99.90;;;;;;5059120;28;20205;-65
2022/11/14 00:25:34;;;;;;;29.15;18.35;;;6.80;99.90;;;;;;5077327;28;20215;-66
2022/11/14 00:28:24;;;;;;;25.77;17.05;;;6.80;99.90;;;;;;5063169;28;20219;-65
2022/11/14 00:31:11;;;;;;;26.15;16.88;;;6.90;99.90;;;;;;5060564;28;20566;-65
2022/11/14 00:33:57;;;;;;;23.05;17.25;;;6.90;99.90;;;;;;5055814;28;20236;-66
2022/11/14 00:36:44;;;;;;;24.77;16.73;;;7.00;99.90;;;;;;5067431;28;20196;-66
2022/11/14 00:39:31;;;;;;;26.70;17.80;;;7.00;99.90;;;;;;5072158;28;20322;-66
2022/11/14 00:42:17;;;;;;;25.52;16.25;;;6.90;99.90;;;;;;5057579;28;20195;-66
2022/11/14 00:45:05;;;;;;;24.08;16.60;;;6.90;99.90;;;;;;5064323;28;20582;-66
2022/11/14 00:47:51;;;;;;;25.80;16.42;;;7.00;99.90;;;;;;5075317;28;20199;-66
2022/11/14 00:50:38;;;;;;;31.45;18.25;;;7.00;99.90;;;;;;5054475;28;20619;-66
2022/11/14 00:53:24;;;;;;;26.00;17.48;;;7.10;99.90;;;;;;5055427;28;20189;-66
2022/11/14 00:56:12;;;;;;;26.13;18.38;;;7.10;99.90;;;;;;5054636;28;20181;-67
2022/11/14 00:58:58;;;;;;;24.90;17.33;;;7.10;99.90;;;;;;5054144;28;20202;-65
2022/11/14 01:01:45;;;;;;;21.95;16.98;;;7.00;99.90;;;;;;5067782;28;20191;-66
2022/11/14 01:04:31;;;;;;;26.88;16.00;;;7.00;99.90;;;;;;5074534;28;20212;-66
2022/11/14 01:07:21;;;;;;;25.35;16.42;;;7.00;99.90;;;;;;5075852;28;20184;-66
2022/11/14 01:10:12;;;;;;;22.60;16.63;;;7.00;99.90;;;;;;5074016;28;20199;-66
2022/11/14 01:13:00;;;;;;;22.63;17.17;;;7.00;99.90;;;;;;5074679;28;20184;-66
2022/11/14 01:15:48;;;;;;;24.63;17.95;;;7.00;99.90;;;;;;5072246;28;20275;-66
2022/11/14 01:18:36;;;;;;;23.48;16.58;;;7.00;99.90;;;;;;5063652;28;20189;-67
2022/11/14 01:21:22;;;;;;;25.70;17.38;;;7.00;99.90;;;;;;5072027;28;20199;-66
2022/11/14 01:24:08;;;;;;;26.02;17.75;;;6.90;99.90;;;;;;5060637;28;20208;-67
2022/11/14 01:26:55;;;;;;;24.23;17.13;;;7.00;99.90;;;;;;5061499;28;20191;-66
2022/11/14 01:29:43;;;;;;;23.05;15.48;;;7.00;99.90;;;;;;5055184;28;20255;-66
2022/11/14 01:32:30;;;;;;;31.08;20.73;;;7.00;99.90;;;;;;5055877;28;20650;-67
2022/11/14 01:35:16;;;;;;;23.88;17.27;;;6.90;99.90;;;;;;5072388;28;20191;-66
2022/11/14 01:38:03;;;;;;;24.45;15.95;;;6.90;99.90;;;;;;5067605;28;20192;-66
2022/11/14 01:40:50;;;;;;;21.23;16.08;;;6.90;99.90;;;;;;5067955;28;20199;-65
2022/11/14 01:43:38;;;;;;;19.75;15.55;;;7.00;99.90;;;;;;5067500;28;20243;-65
2022/11/14 01:46:30;;;;;;;21.30;15.93;;;7.00;99.90;;;;;;5066066;28;20215;-65
2022/11/14 01:49:20;;;;;;;20.80;15.15;;;7.00;99.90;;;;;;5053061;28;20185;-65
2022/11/14 01:52:11;;;;;;;20.90;15.02;;;7.10;99.90;;;;;;5068723;28;20200;-65
2022/11/14 01:55:00;;;;;;;22.48;15.80;;;7.10;99.90;;;;;;5073853;28;20184;-66
2022/11/14 01:57:49;;;;;;;24.77;15.68;;;7.00;99.90;;;;;;5072698;28;20208;-65
2022/11/14 02:00:36;;;;;;;19.67;15.30;;;7.00;99.90;;;;;;5073472;28;20227;-65
2022/11/14 02:03:24;;;;;;;23.65;15.35;;;7.00;99.90;;;;;;5072243;28;20483;-65
2022/11/14 02:06:14;;;;;;;22.30;15.75;;;7.10;99.90;;;;;;5070794;28;20572;-64
2022/11/14 02:09:06;;;;;;;20.40;15.88;;;7.10;99.90;;;;;;5064464;28;20197;-64
2022/11/14 02:11:54;;;;;;;21.70;15.80;;;7.10;99.90;;;;;;5056778;28;20212;-64
2022/11/14 02:14:44;;;;;;;21.95;16.23;;;7.10;99.90;;;;;;5071578;28;20191;-65
2022/11/14 02:17:31;;;;;;;18.63;15.25;;;7.10;99.90;;;;;;5062957;28;20201;-64
2022/11/14 02:20:22;;;;;;;18.80;15.23;;;7.10;99.90;;;;;;5060691;28;20196;-64
2022/11/14 02:23:09;;;;;;;22.65;16.30;;;7.10;99.90;;;;;;5057472;28;20204;-65
2022/11/14 02:25:55;;;;;;;21.98;16.60;;;7.10;99.90;;;;;;5065769;28;20391;-64
2022/11/14 02:28:41;;;;;;;21.40;15.02;;;7.10;99.90;;;;;;5071071;28;20219;-64
2022/11/14 02:31:27;;;;;;;21.50;14.82;;;7.10;99.90;;;;;;5070313;28;20188;-64
2022/11/14 02:34:18;;;;;;;21.55;14.93;;;7.00;99.90;;;;;;5054388;28;20234;-64
2022/11/14 02:37:07;;;;;;;20.02;13.95;;;7.00;99.90;;;;;;5055910;28;20192;-64
2022/11/14 02:39:53;;;;;;;21.63;14.50;;;7.00;99.90;;;;;;5059414;28;20184;-64
2022/11/14 02:42:40;;;;;;;20.98;14.50;;;7.00;99.90;;;;;;5064219;28;20286;-65
2022/11/14 02:45:26;;;;;;;22.58;16.70;;;7.00;99.90;;;;;;5052617;28;20216;-64
2022/11/14 02:48:13;;;;;;;23.58;14.77;;;7.10;99.90;;;;;;5063599;28;20314;-66
2022/11/14 02:50:59;;;;;;;19.65;14.13;;;7.10;99.90;;;;;;5063409;28;20192;-64
2022/11/14 02:53:47;;;;;;;21.95;15.00;;;7.10;99.90;;;;;;5063777;28;20636;-64
2022/11/14 02:56:33;;;;;;;20.17;13.60;;;7.20;99.90;;;;;;5051828;28;20185;-65
2022/11/14 02:59:20;;;;;;;19.80;15.77;;;7.10;99.90;;;;;;5053358;28;20579;-64
2022/11/14 03:02:06;;;;;;;20.40;15.05;;;7.10;99.90;;;;;;5055852;28;20200;-64
2022/11/14 03:04:53;;;;;;;24.13;17.05;;;7.10;99.90;;;;;;5058405;28;20199;-64
2022/11/14 03:07:39;;;;;;;20.13;14.50;;;7.10;99.90;;;;;;5067107;28;20203;-64
2022/11/14 03:10:27;;;;;;;18.95;13.65;;;7.10;99.90;;;;;;5059725;28;20226;-64
2022/11/14 03:13:13;;;;;;;22.40;14.98;;;7.10;99.90;;;;;;5071562;28;20199;-64
2022/11/14 03:16:06;;;;;;;24.60;15.80;;;7.10;99.90;;;;;;5071179;28;20286;-64
2022/11/14 03:18:53;;;;;;;19.42;15.15;;;7.10;99.90;;;;;;5072981;28;20203;-64
2022/11/14 03:21:41;;;;;;;19.80;14.43;;;7.00;99.90;;;;;;5071255;28;20402;-64
2022/11/14 03:24:28;;;;;;;22.38;14.95;;;6.90;99.90;;;;;;5071407;28;20203;-64
2022/11/14 03:27:16;;;;;;;19.73;14.45;;;7.00;99.90;;;;;;5060270;28;20203;-64
2022/11/14 03:30:03;;;;;;;22.15;16.13;;;7.00;99.90;;;;;;5052562;28;20200;-64
2022/11/14 03:32:50;;;;;;;21.42;15.38;;;7.00;99.90;;;;;;5053201;28;20189;-64
2022/11/14 03:35:36;;;;;;;22.50;15.27;;;7.00;99.90;;;;;;5052015;28;20199;-64
2022/11/14 03:38:22;;;;;;;18.83;13.10;;;7.00;99.90;;;;;;5051943;28;20197;-64
2022/11/14 03:41:09;;;;;;;20.02;13.23;;;7.00;99.90;;;;;;5053011;28;20197;-64
2022/11/14 03:44:00;;;;;;;18.88;14.55;;;6.90;99.90;;;;;;5060018;28;20222;-64
2022/11/14 03:46:51;;;;;;;22.52;15.00;;;6.90;99.90;;;;;;5065492;28;20200;-65
2022/11/14 03:49:39;;;;;;;20.35;14.60;;;6.80;99.90;;;;;;5073005;28;20195;-65
2022/11/14 03:52:26;;;;;;;20.13;13.80;;;6.90;99.90;;;;;;5062022;28;20690;-64
2022/11/14 03:55:12;;;;;;;18.55;14.38;;;6.80;99.90;;;;;;5052963;28;20196;-64
2022/11/14 03:57:59;;;;;;;20.23;13.52;;;6.80;99.90;;;;;;5060136;28;20558;-64
2022/11/14 04:00:46;;;;;;;21.80;15.10;;;6.70;99.90;;;;;;5062506;28;20196;-64
2022/11/14 04:03:33;;;;;;;22.13;15.65;;;6.80;99.90;;;;;;5055635;28;20203;-65
2022/11/14 04:06:19;;;;;;;19.75;14.35;;;6.70;99.90;;;;;;5058216;28;20228;-64
2022/11/14 04:09:06;;;;;;;20.40;13.10;;;6.80;99.90;;;;;;5066645;28;20219;-64
2022/11/14 04:11:52;;;;;;;22.05;14.30;;;6.80;99.90;;;;;;5056403;28;20216;-64
2022/11/14 04:14:39;;;;;;;24.20;14.82;;;6.80;99.90;;;;;;5066464;28;20196;-64
2022/11/14 04:17:27;;;;;;;21.15;13.32;;;6.70;99.90;;;;;;5064197;28;20243;-64
2022/11/14 04:20:14;;;;;;;25.45;15.90;;;6.70;99.90;;;;;;5055410;28;20199;-64
2022/11/14 04:23:01;;;;;;;28.88;16.35;;;6.70;99.90;;;;;;5057910;28;20197;-64
2022/11/14 04:25:47;;;;;;;30.83;15.32;;;6.60;99.90;;;;;;5056620;28;20318;-64
2022/11/14 04:28:34;;;;;;;31.45;16.58;;;6.50;99.90;;;;;;5061766;28;20243;-64
2022/11/14 04:31:20;;;;;;;30.00;16.48;;;6.50;99.90;;;;;;5062078;28;20184;-64
2022/11/14 04:34:07;;;;;;;30.40;16.98;;;6.60;99.90;;;;;;5064647;28;20229;-64
2022/11/14 04:36:54;;;;;;;28.52;16.60;;;6.60;99.90;;;;;;5063946;28;20195;-64
2022/11/14 04:39:41;;;;;;;37.75;17.00;;;6.60;99.90;;;;;;5071012;28;20214;-65
2022/11/14 04:42:27;;;;;;;29.13;15.45;;;6.60;99.90;;;;;;5058337;28;20631;-65
2022/11/14 04:45:14;;;;;;;32.33;17.00;;;6.50;99.90;;;;;;5065234;28;20219;-64
2022/11/14 04:48:00;;;;;;;33.40;17.65;;;6.50;99.90;;;;;;5056137;28;20213;-64
2022/11/14 04:50:47;;;;;;;37.17;17.60;;;6.50;99.90;;;;;;5064257;28;20184;-64
2022/11/14 04:53:34;;;;;;;35.35;18.02;;;6.50;99.90;;;;;;5074659;28;20207;-65
2022/11/14 04:56:22;;;;;;;39.67;18.08;;;6.50;99.90;;;;;;5075473;28;20237;-65
2022/11/14 04:59:08;;;;;;;43.17;19.80;;;6.50;99.90;;;;;;5075643;28;20185;-65
2022/11/14 05:01:55;;;;;;;33.72;17.08;;;6.40;99.90;;;;;;5074997;28;20188;-65
2022/11/14 05:04:43;;;;;;;38.75;16.98;;;6.40;99.90;;;;;;5075079;28;20195;-64
2022/11/14 05:07:31;;;;;;;42.92;21.85;;;6.50;99.90;;;;;;5075875;28;20204;-64
2022/11/14 05:10:17;;;;;;;39.38;18.70;;;6.50;99.90;;;;;;5075319;28;20183;-65
2022/11/14 05:13:03;;;;;;;42.08;18.30;;;6.30;99.90;;;;;;5076002;28;20187;-64
2022/11/14 05:15:50;;;;;;;52.83;21.77;;;6.30;99.90;;;;;;5075333;28;20188;-64
2022/11/14 05:18:37;;;;;;;35.80;17.73;;;6.40;99.90;;;;;;5075031;28;20200;-64
2022/11/14 05:21:23;;;;;;;38.60;17.02;;;6.30;99.90;;;;;;5058496;28;20191;-64
2022/11/14 05:24:11;;;;;;;34.97;17.38;;;6.30;99.90;;;;;;5066888;28;20197;-65
2022/11/14 05:26:59;;;;;;;38.22;17.92;;;6.30;99.90;;;;;;5055503;28;20241;-64
2022/11/14 05:29:45;;;;;;;41.70;18.92;;;6.30;99.90;;;;;;5056279;28;20542;-64
2022/11/14 05:32:32;;;;;;;42.15;19.17;;;6.20;99.90;;;;;;5056269;28;20209;-64
2022/11/14 05:35:18;;;;;;;38.97;18.08;;;6.20;99.90;;;;;;5055843;28;20637;-64
2022/11/14 05:38:04;;;;;;;33.97;19.52;;;6.20;99.90;;;;;;5055193;28;20188;-64
2022/11/14 05:40:52;;;;;;;39.55;18.25;;;6.30;99.90;;;;;;5058643;28;20200;-64
2022/11/14 05:43:39;;;;;;;37.03;20.33;;;6.40;99.90;;;;;;5058834;28;20189;-64
2022/11/14 05:46:26;;;;;;;31.75;18.20;;;6.30;99.90;;;;;;5055073;28;20192;-64
2022/11/14 05:49:12;;;;;;;33.67;19.80;;;6.30;99.90;;;;;;5053575;28;20243;-64
2022/11/14 05:51:58;;;;;;;34.97;17.75;;;6.30;99.90;;;;;;5054686;28;20631;-64
2022/11/14 05:54:44;;;;;;;28.52;15.80;;;6.30;99.90;;;;;;5068936;28;20195;-64
2022/11/14 05:57:32;;;;;;;31.88;16.65;;;6.30;99.90;;;;;;5055139;28;20197;-64
2022/11/14 06:00:19;;;;;;;28.80;14.63;;;6.20;99.90;;;;;;5059072;28;20555;-64
2022/11/14 06:03:05;;;;;;;22.30;15.13;;;6.30;99.90;;;;;;5062465;28;20680;-64
2022/11/14 06:05:51;;;;;;;27.92;15.75;;;6.20;99.90;;;;;;5064567;28;20204;-64
2022/11/14 06:08:38;;;;;;;31.58;16.35;;;6.30;99.90;;;;;;5062491;28;20260;-64
2022/11/14 06:11:24;;;;;;;28.63;16.67;;;6.20;99.90;;;;;;5055367;28;20229;-64
2022/11/14 06:14:12;;;;;;;28.45;17.13;;;6.30;99.90;;;;;;5058869;28;20189;-66
2022/11/14 06:16:58;;;;;;;32.95;17.60;;;6.30;99.90;;;;;;5061879;28;20192;-65
2022/11/14 06:19:45;;;;;;;31.25;16.15;;;6.30;99.90;;;;;;5053317;28;20215;-65
2022/11/14 06:22:32;;;;;;;31.40;16.50;;;6.30;99.90;;;;;;5073445;28;20643;-65
2022/11/14 06:25:18;;;;;;;31.65;16.77;;;6.30;99.90;;;;;;5069207;28;20529;-65
2022/11/14 06:28:04;;;;;;;31.48;18.55;;;6.30;99.90;;;;;;5052865;28;20228;-65
2022/11/14 06:30:56;;;;;;;39.28;17.02;;;6.30;99.90;;;;;;5054593;28;20209;-66
2022/11/14 06:33:42;;;;;;;31.10;17.73;;;6.30;99.90;;;;;;5057175;28;20205;-65
2022/11/14 06:36:30;;;;;;;39.40;19.63;;;6.20;99.90;;;;;;5060328;28;20657;-65
2022/11/14 06:39:17;;;;;;;30.80;18.17;;;6.20;99.90;;;;;;5061628;28;20192;-65
2022/11/14 06:42:03;;;;;;;31.33;17.25;;;6.40;99.90;;;;;;5060830;28;20200;-66
2022/11/14 06:44:50;;;;;;;49.05;25.70;;;6.30;99.90;;;;;;5061380;28;20193;-65
2022/11/14 06:47:38;;;;;;;29.05;16.30;;;6.20;99.90;;;;;;5064858;28;20215;-65
2022/11/14 06:50:24;;;;;;;35.67;18.70;;;6.20;99.90;;;;;;5055269;28;20752;-65
2022/11/14 06:53:10;;;;;;;29.08;17.27;;;6.10;99.90;;;;;;5065465;28;20200;-66
2022/11/14 06:55:58;;;;;;;35.30;18.90;;;6.10;99.90;;;;;;5067067;28;20188;-66
2022/11/14 06:58:47;;;;;;;34.35;21.67;;;6.10;99.90;;;;;;5069432;28;20184;-66
2022/11/14 07:01:33;;;;;;;33.38;17.15;;;6.10;99.90;;;;;;5069688;28;20191;-66
2022/11/14 07:04:21;;;;;;;28.08;16.90;;;5.80;99.90;;;;;;5070752;28;20195;-65
2022/11/14 07:07:08;;;;;;;34.40;17.90;;;5.80;99.90;;;;;;5070731;28;20253;-65
2022/11/14 07:09:55;;;;;;;27.58;16.25;;;5.80;99.90;;;;;;5071143;28;20199;-65
2022/11/14 07:12:42;;;;;;;30.30;17.15;;;5.80;99.90;;;;;;5071000;28;20216;-65
2022/11/14 07:15:28;;;;;;;30.52;18.25;;;5.80;99.90;;;;;;5070849;28;20195;-64
2022/11/14 07:18:14;;;;;;;30.35;18.80;;;5.70;99.90;;;;;;5070567;28;20608;-64
2022/11/14 07:21:04;;;;;;;29.40;18.30;;;5.60;99.90;;;;;;5069819;28;20199;-66
2022/11/14 07:23:52;;;;;;;28.55;18.05;;;5.70;99.90;;;;;;5054734;28;20199;-65
2022/11/14 07:26:38;;;;;;;25.20;16.80;;;5.60;99.90;;;;;;5065920;28;20246;-65
2022/11/14 07:29:24;;;;;;;27.30;16.85;;;5.70;99.90;;;;;;5067762;28;20292;-65
2022/11/14 07:32:10;;;;;;;28.48;18.85;;;5.60;99.90;;;;;;5067265;28;20195;-65
2022/11/14 07:34:56;;;;;;;25.88;17.83;;;5.60;99.90;;;;;;5068232;28;20184;-65
2022/11/14 07:37:44;;;;;;;25.38;17.08;;;5.60;99.90;;;;;;5060548;28;20557;-65
2022/11/14 07:40:30;;;;;;;26.70;17.88;;;5.60;99.90;;;;;;5068690;28;20430;-66
2022/11/14 07:43:17;;;;;;;25.67;16.35;;;5.60;99.90;;;;;;5050172;28;20192;-65
2022/11/14 07:46:05;;;;;;;23.10;16.90;;;5.70;99.90;;;;;;5050347;28;20189;-66
2022/11/14 07:48:52;;;;;;;22.83;15.77;;;5.70;99.90;;;;;;5055990;28;20641;-66
2022/11/14 07:51:38;;;;;;;21.63;14.73;;;5.70;99.90;;;;;;5066066;28;20199;-66
2022/11/14 07:54:26;;;;;;;23.90;17.83;;;5.60;99.90;;;;;;5064644;28;20196;-65
2022/11/14 07:57:12;;;;;;;22.67;15.25;;;5.60;99.90;;;;;;5057124;28;20200;-66
2022/11/14 07:59:59;;;;;;;24.15;16.33;;;5.50;99.90;;;;;;5060103;28;20199;-65
2022/11/14 08:02:46;;;;;;;19.17;14.98;;;5.60;99.90;;;;;;5054107;28;20199;-65
2022/11/14 08:05:32;;;;;;;27.95;16.95;;;5.60;99.90;;;;;;5049807;28;20207;-64
2022/11/14 08:08:18;;;;;;;22.60;15.77;;;5.60;99.90;;;;;;5061561;28;20220;-65
2022/11/14 08:11:06;;;;;;;25.05;14.65;;;5.70;99.90;;;;;;5055022;28;20223;-64
2022/11/14 08:13:52;;;;;;;19.40;14.68;;;5.80;99.90;;;;;;5052002;28;20578;-65
2022/11/14 08:16:39;;;;;;;21.00;15.40;;;5.80;99.90;;;;;;5057192;28;20700;-65
2022/11/14 08:19:25;;;;;;;21.92;14.38;;;6.00;99.90;;;;;;5062831;28;20187;-65
2022/11/14 08:22:12;;;;;;;16.88;12.98;;;5.90;99.90;;;;;;5062582;28;20196;-65
2022/11/14 08:24:58;;;;;;;17.73;13.90;;;5.80;99.90;;;;;;5056312;28;20188;-65
2022/11/14 08:27:46;;;;;;;24.52;15.38;;;5.70;99.90;;;;;;5059997;28;20480;-65
2022/11/14 08:30:32;;;;;;;16.77;13.77;;;5.80;99.90;;;;;;5063116;28;20188;-66
2022/11/14 08:33:19;;;;;;;18.67;13.40;;;5.90;99.90;;;;;;5049648;28;20196;-65
2022/11/14 08:36:07;;;;;;;16.48;13.20;;;5.90;99.90;;;;;;5048887;28;20553;-65
2022/11/14 08:38:53;;;;;;;18.83;12.85;;;5.90;99.90;;;;;;5048252;28;20181;-65
2022/11/14 08:41:40;;;;;;;21.77;17.35;;;5.90;99.90;;;;;;5048391;28;20192;-65
2022/11/14 08:44:28;;;;;;;19.63;14.90;;;6.00;99.90;;;;;;5052126;28;20208;-65
2022/11/14 08:47:14;;;;;;;16.55;12.35;;;6.10;99.90;;;;;;5052673;28;20189;-66
2022/11/14 08:50:00;;;;;;;22.42;15.85;;;6.00;99.90;;;;;;5052771;28;20209;-65
2022/11/14 08:52:50;;;;;;;19.42;14.63;;;6.10;99.90;;;;;;5053092;28;20196;-65
2022/11/14 08:55:37;;;;;;;19.63;14.00;;;6.20;99.90;;;;;;5052523;28;20640;-64
2022/11/14 08:58:23;;;;;;;16.95;12.48;;;6.20;99.90;;;;;;5054671;28;20191;-64
2022/11/14 09:01:11;;;;;;;29.13;19.92;;;5.90;99.90;;;;;;5059039;28;20605;-66
2022/11/14 09:03:58;;;;;;;18.63;13.15;;;6.00;99.90;;;;;;5056433;28;20201;-65
2022/11/14 09:06:45;;;;;;;20.90;13.73;;;6.10;99.90;;;;;;5058362;28;20531;-66
2022/11/14 09:09:31;;;;;;;21.38;14.93;;;6.00;99.90;;;;;;5071045;28;20682;-66
2022/11/14 09:12:18;;;;;;;24.52;14.43;;;6.20;99.90;;;;;;5060683;28;20219;-65
2022/11/14 09:15:04;;;;;;;18.40;13.40;;;6.30;99.90;;;;;;5069096;28;20669;-66
2022/11/14 09:17:54;;;;;;;20.30;14.38;;;6.30;99.90;;;;;;5052141;28;20193;-65
2022/11/14 09:20:41;;;;;;;18.45;13.73;;;6.30;99.90;;;;;;5056250;28;20200;-65
2022/11/14 09:23:27;;;;;;;17.50;12.85;;;6.40;99.90;;;;;;5054480;28;20196;-66
2022/11/14 09:26:14;;;;;;;17.83;13.00;;;6.40;99.90;;;;;;5072019;28;20188;-66
2022/11/14 09:29:01;;;;;;;16.80;12.77;;;6.60;99.90;;;;;;5061686;28;20224;-65
2022/11/14 09:31:47;;;;;;;15.20;12.50;;;6.70;99.90;;;;;;5052840;28;20188;-67
2022/11/14 09:34:36;;;;;;;17.75;12.75;;;6.90;99.90;;;;;;5062286;28;20199;-66
2022/11/14 09:37:22;;;;;;;13.82;11.57;;;7.00;99.90;;;;;;5071535;28;20223;-66
2022/11/14 09:40:13;;;;;;;18.08;14.18;;;7.10;99.90;;;;;;5072478;28;20195;-65
2022/11/14 09:43:13;;;;;;;20.50;13.93;;;7.00;99.90;;;;;;5070588;28;20257;-65
2022/11/14 09:45:59;;;;;;;19.10;14.27;;;6.90;99.90;;;;;;5065270;28;20200;-65
2022/11/14 09:48:46;;;;;;;16.73;13.25;;;6.90;99.90;;;;;;5052029;28;20205;-66
2022/11/14 09:51:38;;;;;;;21.95;14.88;;;6.90;99.90;;;;;;5061551;28;20197;-66
2022/11/14 09:54:27;;;;;;;17.58;12.38;;;6.90;99.90;;;;;;5052469;28;20197;-66
2022/11/14 09:57:16;;;;;;;21.05;13.70;;;6.80;99.90;;;;;;5054349;28;20189;-66
2022/11/14 10:00:06;;;;;;;20.73;14.50;;;6.80;99.90;;;;;;5053830;28;20197;-65
2022/11/14 10:03:08;;;;;;;20.90;12.38;;;6.90;99.90;;;;;;5058945;28;20589;-65
2022/11/14 10:06:21;;;;;;;17.23;13.65;;;7.00;99.90;;;;;;5060627;28;20249;-65
2022/11/14 10:09:39;;;;;;;22.08;14.93;;;6.90;99.90;;;;;;5064835;28;20278;-65
2022/11/14 10:12:35;;;;;;;16.35;13.40;;;6.90;99.90;;;;;;5051283;28;20223;-65
2022/11/14 10:15:26;;;;;;;19.40;13.50;;;6.80;99.90;;;;;;5051535;28;20208;-66
2022/11/14 10:18:35;;;;;;;18.80;13.30;;;6.90;99.90;;;;;;5051399;28;20346;-67
2022/11/14 10:21:37;;;;;;;18.40;13.25;;;7.00;99.90;;;;;;5056776;28;20203;-65
2022/11/14 10:24:44;;;;;;;15.70;12.98;;;7.10;99.90;;;;;;5071218;28;20585;-65
2022/11/14 10:27:36;;;;;;;18.90;14.52;;;7.10;99.90;;;;;;5063937;28;20631;-65
2022/11/14 10:30:22;;;;;;;24.20;17.15;;;7.10;99.90;;;;;;5069524;28;20451;-65
2022/11/14 10:33:20;;;;;;;19.05;13.68;;;7.10;99.90;;;;;;5064835;28;20195;-65
2022/11/14 10:36:15;;;;;;;36.63;18.60;;;7.20;99.90;;;;;;5051679;28;20197;-66
2022/11/14 10:39:09;;;;;;;23.58;17.42;;;7.20;99.90;;;;;;5051018;28;20196;-66
2022/11/14 10:42:02;;;;;;;15.95;12.77;;;7.10;99.90;;;;;;5055153;28;20666;-66
2022/11/14 10:44:53;;;;;;;21.48;14.35;;;7.10;99.90;;;;;;5070147;28;20180;-66
2022/11/14 10:47:44;;;;;;;17.05;13.65;;;7.10;99.90;;;;;;5070684;28;20194;-65
2022/11/14 10:50:40;;;;;;;18.15;12.88;;;7.10;99.90;;;;;;5059472;28;20562;-65
2022/11/14 10:53:37;;;;;;;17.95;11.60;;;7.00;99.90;;;;;;5052369;28;20196;-66
2022/11/14 10:56:23;;;;;;;17.92;13.02;;;7.00;99.90;;;;;;5065170;28;20201;-66
2022/11/14 10:59:11;;;;;;;17.13;12.65;;;7.00;99.90;;;;;;5059563;28;20196;-66
2022/11/14 11:01:58;;;;;;;15.15;12.90;;;7.00;99.90;;;;;;5058530;28;20621;-66
2022/11/14 11:04:45;;;;;;;19.00;13.13;;;7.00;99.90;;;;;;5054477;28;20188;-66
2022/11/14 11:13:53;;;;;;;14.35;12.25;;;7.30;99.90;;;;;;5058217;28;20196;-66
2022/11/14 11:16:41;;;;;;;15.57;13.07;;;7.10;99.90;;;;;;5058512;28;20196;-66
2022/11/14 11:19:29;;;;;;;21.77;14.60;;;7.10;99.90;;;;;;5051696;28;20185;-66
2022/11/14 11:22:35;;;;;;;15.98;13.40;;;7.20;99.90;;;;;;5059034;28;20185;-66
2022/11/14 11:25:25;;;;;;;16.83;12.20;;;7.30;99.90;;;;;;5070340;28;20199;-66
2022/11/14 11:28:14;;;;;;;16.63;13.25;;;7.20;99.90;;;;;;5064961;28;20224;-66
2022/11/14 11:31:03;;;;;;;18.95;12.52;;;7.40;99.90;;;;;;5059403;28;20614;-66
2022/11/14 11:33:50;;;;;;;26.40;19.38;;;7.50;99.90;;;;;;5069961;28;20564;-66
2022/11/14 11:36:42;;;;;;;25.25;19.17;;;7.60;99.90;;;;;;5067087;28;20624;-66
2022/11/14 11:39:32;;;;;;;17.02;13.50;;;7.70;99.90;;;;;;5053735;28;20639;-66
2022/11/14 11:42:23;;;;;;;17.75;12.98;;;7.90;99.90;;;;;;5050788;28;20584;-66
2022/11/14 11:45:16;;;;;;;16.23;12.60;;;7.90;99.90;;;;;;5068441;28;20226;-66
2022/11/14 11:48:13;;;;;;;17.20;12.23;;;8.00;99.90;;;;;;5064275;28;20428;-67
2022/11/14 11:51:03;;;;;;;14.95;12.75;;;7.70;99.90;;;;;;5070492;28;20249;-66
2022/11/14 11:53:58;;;;;;;20.52;13.63;;;7.80;99.90;;;;;;5056995;28;20193;-65
2022/11/14 11:56:47;;;;;;;12.93;11.40;;;7.80;99.90;;;;;;5050122;28;20197;-66
2022/11/14 11:59:40;;;;;;;22.75;12.15;;;7.70;99.90;;;;;;5050610;28;20203;-66
2022/11/14 12:02:27;;;;;;;13.88;11.25;;;7.70;99.90;;;;;;5049819;28;20208;-66
2022/11/14 12:05:16;;;;;;;14.48;12.77;;;7.80;99.90;;;;;;5054182;28;20815;-65
2022/11/14 12:08:08;;;;;;;18.90;11.60;;;7.90;99.90;;;;;;5052915;28;20185;-65
2022/11/14 12:10:56;;;;;;;15.65;12.85;;;8.20;99.90;;;;;;5051373;28;20301;-65
2022/11/14 12:14:23;;;;;;;17.42;13.32;;;8.20;99.90;;;;;;5059106;28;20580;-66
2022/11/14 12:17:45;;;;;;;13.05;11.65;;;8.30;99.90;;;;;;5041828;28;20199;-66
2022/11/14 12:20:51;;;;;;;16.98;12.32;;;8.10;99.90;;;;;;5061493;28;20341;-66
2022/11/14 12:24:10;;;;;;;15.90;11.85;;;8.20;99.90;;;;;;5066700;28;20261;-66
2022/11/14 12:27:24;;;;;;;12.85;10.70;;;8.30;99.90;;;;;;5061564;28;20219;-67
2022/11/14 12:30:15;;;;;;;12.85;10.80;;;8.20;99.90;;;;;;5058594;28;20224;-66
2022/11/14 12:33:07;;;;;;;12.73;10.98;;;8.40;99.90;;;;;;5061486;28;20204;-66
2022/11/14 12:35:57;;;;;;;12.73;10.35;;;8.90;99.90;;;;;;5059655;28;20197;-66
2022/11/14 12:38:49;;;;;;;12.80;10.90;;;9.90;99.90;;;;;;5063208;28;20212;-66
2022/11/14 12:41:37;;;;;;;11.27;9.45;;;10.60;99.90;;;;;;5060818;28;20193;-66
2022/11/14 12:44:34;;;;;;;10.68;9.35;;;10.40;99.90;;;;;;5063556;28;20188;-66
2022/11/14 12:47:26;;;;;;;11.45;9.77;;;9.80;99.90;;;;;;5052921;28;20208;-66
2022/11/14 12:50:35;;;;;;;13.88;10.30;;;10.00;99.90;;;;;;5050592;28;20216;-66
2022/11/14 12:53:41;;;;;;;13.02;11.02;;;9.80;99.90;;;;;;5060925;28;20250;-66
2022/11/14 12:57:08;;;;;;;13.43;10.60;;;9.50;99.90;;;;;;5065440;28;20199;-67
2022/11/14 13:00:02;;;;;;;12.45;10.45;;;9.20;99.90;;;;;;5008160;28;20191;-66
2022/11/14 13:03:08;;;;;;;14.07;11.40;;;9.10;99.90;;;;;;4990738;28;20198;-67
2022/11/14 13:05:59;;;;;;;12.45;11.02;;;9.10;99.90;;;;;;5053526;28;20631;-67
2022/11/14 13:09:15;;;;;;;14.43;11.02;;;8.90;99.90;;;;;;5052979;28;20475;-66
2022/11/14 13:22:36;;;;;;;13.07;10.10;;;8.90;99.90;;;;;;5052313;28;20200;-66
2022/11/14 13:25:23;;;;;;;14.63;10.80;;;8.80;99.90;;;;;;5052032;28;20201;-66
2022/11/14 13:28:47;;;;;;;18.45;14.60;;;8.80;99.90;;;;;;5051577;28;20572;-67
2022/11/14 13:31:48;;;;;;;17.98;12.10;;;8.70;99.90;;;;;;5076617;28;20223;-66
2022/11/14 13:34:44;;;;;;;15.70;11.23;;;9.00;99.90;;;;;;5051944;28;20197;-66
2022/11/14 13:37:49;;;;;;;15.10;11.90;;;9.00;99.90;;;;;;5052185;28;20270;-66
2022/11/14 13:40:41;;;;;;;20.10;11.75;;;9.00;99.90;;;;;;5052103;28;20233;-66
2022/11/14 13:43:43;;;;;;;14.05;11.40;;;9.10;99.90;;;;;;5051858;28;20192;-66
2022/11/14 13:46:45;;;;;;;14.57;11.52;;;9.00;99.90;;;;;;5050541;28;20184;-66
2022/11/14 13:49:45;;;;;;;19.02;14.40;;;9.10;99.90;;;;;;5061137;28;20192;-67
2022/11/14 13:52:34;;;;;;;15.85;12.75;;;8.90;99.90;;;;;;5061031;28;20216;-66
2022/11/14 13:55:23;;;;;;;14.07;12.43;;;9.10;99.90;;;;;;5060461;28;20201;-66
2022/11/14 13:58:23;;;;;;;17.42;15.15;;;9.20;99.90;;;;;;5059981;28;20640;-65
2022/11/14 14:01:22;;;;;;;15.32;13.70;;;9.00;99.90;;;;;;5061269;28;20195;-66
2022/11/14 14:04:22;;;;;;;17.67;12.75;;;9.00;99.90;;;;;;5061959;28;20604;-66
2022/11/14 14:07:15;;;;;;;16.27;11.77;;;9.00;99.90;;;;;;5061612;28;20203;-66
2022/11/14 14:10:14;;;;;;;21.88;14.25;;;9.20;99.90;;;;;;5061460;28;20212;-65
2022/11/14 14:13:14;;;;;;;22.35;13.02;;;9.00;99.90;;;;;;5067355;28;20200;-66
2022/11/14 14:16:07;;;;;;;16.35;12.25;;;9.10;99.90;;;;;;5066179;28;20204;-66
2022/11/14 14:19:05;;;;;;;19.33;14.60;;;8.90;99.90;;;;;;5072554;28;20642;-65
2022/11/14 14:22:00;;;;;;;23.02;13.93;;;8.90;99.90;;;;;;5091929;28;20207;-65
2022/11/14 14:24:54;;;;;;;20.77;15.43;;;8.90;99.90;;;;;;5061933;28;20203;-65
2022/11/14 14:28:09;;;;;;;14.07;12.18;;;8.90;99.90;;;;;;5062942;28;20205;-63
2022/11/14 14:31:08;;;;;;;17.75;12.85;;;8.90;99.90;;;;;;5063116;28;20216;-65
2022/11/14 14:33:54;;;;;;;12.52;10.68;;;9.10;99.90;;;;;;5053971;28;20207;-65
2022/11/14 14:36:49;;;;;;;14.02;10.93;;;9.30;99.90;;;;;;5055412;28;20738;-67
2022/11/14 14:39:39;;;;;;;15.80;11.13;;;9.40;99.90;;;;;;5070829;28;20195;-67
2022/11/14 14:42:48;;;;;;;11.57;9.80;;;9.50;99.90;;;;;;5081253;28;20223;-66
2022/11/14 14:45:47;;;;;;;13.93;10.63;;;9.40;99.90;;;;;;5074210;28;20223;-66
2022/11/14 14:48:36;;;;;;;11.20;10.07;;;9.30;99.90;;;;;;5074424;28;20184;-66
2022/11/14 14:51:31;;;;;;;10.90;9.52;;;9.20;99.90;;;;;;5056267;28;20209;-66
2022/11/14 14:54:22;;;;;;;10.68;9.38;;;9.20;99.90;;;;;;5065072;28;20197;-66